sensor_id;sensor_type;location;lat;lon;timestamp;pressure;altitude;pressure_sealevel;temperature;humidity
9325;BME280;4701;51.566;6.776;2023-04-24T07:03:39;99803.75;;;8.88;93.13
9325;BME280;4701;51.566;6.776;2023-04-24T07:06:42;99792.06;;;8.93;94.04
9325;BME280;4701;51.566;6.776;2023-04-24T07:09:44;99804.81;;;8.97;94.20
9325;BME280;4701;51.566;6.776;2023-04-24T07:12:46;99781.13;;;9.03;93.89
9325;BME280;4701;51.566;6.776;2023-04-24T07:15:48;99803.97;;;9.07;93.81
9325;BME280;4701;51.566;6.776;2023-04-24T07:18:52;99783.56;;;9.09;94.06
9325;BME280;4701;51.566;6.776;2023-04-24T07:21:54;99789.25;;;9.13;93.68
9325;BME280;4701;51.566;6.776;2023-04-24T07:24:56;99807.19;;;9.14;93.38
9325;BME280;4701;51.566;6.776;2023-04-24T07:27:58;99811.25;;;9.17;92.97
9325;BME280;4701;51.566;6.776;2023-04-24T07:31:00;99818.59;;;9.16;92.27
9325;BME280;4701;51.566;6.776;2023-04-24T07:34:03;99813.38;;;9.20;92.14
9325;BME280;4701;51.566;6.776;2023-04-24T07:37:05;99819.66;;;9.20;91.83
9325;BME280;4701;51.566;6.776;2023-04-24T07:40:07;99825.63;;;9.22;91.75
9325;BME280;4701;51.566;6.776;2023-04-24T07:43:09;99827.25;;;9.23;91.00
9325;BME280;4701;51.566;6.776;2023-04-24T07:46:11;99826.97;;;9.25;90.95
9325;BME280;4701;51.566;6.776;2023-04-24T07:49:14;99838.13;;;9.23;90.35
9325;BME280;4701;51.566;6.776;2023-04-24T07:52:16;99833.50;;;9.24;90.82
9325;BME280;4701;51.566;6.776;2023-04-24T07:55:18;99836.75;;;9.26;90.71
9325;BME280;4701;51.566;6.776;2023-04-24T07:58:19;99842.19;;;9.26;90.83
9325;BME280;4701;51.566;6.776;2023-04-24T08:01:21;99843.84;;;9.27;90.29
9325;BME280;4701;51.566;6.776;2023-04-24T08:04:24;99844.34;;;9.29;90.78
9325;BME280;4701;51.566;6.776;2023-04-24T08:07:26;99861.47;;;9.29;90.47
9325;BME280;4701;51.566;6.776;2023-04-24T08:10:28;99852.78;;;9.27;90.25
9325;BME280;4701;51.566;6.776;2023-04-24T08:13:30;99866.69;;;9.26;90.17
9325;BME280;4701;51.566;6.776;2023-04-24T08:16:32;99885.72;;;9.26;90.30
9325;BME280;4701;51.566;6.776;2023-04-24T08:19:36;99882.44;;;9.24;90.12
9325;BME280;4701;51.566;6.776;2023-04-24T08:22:37;99878.09;;;9.23;90.78
9325;BME280;4701;51.566;6.776;2023-04-24T08:25:39;99900.94;;;9.22;90.16
9325;BME280;4701;51.566;6.776;2023-04-24T08:28:42;99901.22;;;9.20;90.15
9325;BME280;4701;51.566;6.776;2023-04-24T08:31:44;99908.28;;;9.21;90.55
9325;BME280;4701;51.566;6.776;2023-04-24T08:34:47;99912.09;;;9.20;90.03
9325;BME280;4701;51.566;6.776;2023-04-24T08:37:49;99912.91;;;9.21;91.04
9325;BME280;4701;51.566;6.776;2023-04-24T08:40:51;99920.81;;;9.17;90.79
9325;BME280;4701;51.566;6.776;2023-04-24T08:43:53;99934.09;;;9.19;91.14
9325;BME280;4701;51.566;6.776;2023-04-24T08:46:58;99939.53;;;9.19;91.35
9325;BME280;4701;51.566;6.776;2023-04-24T08:50:02;99942.81;;;9.21;91.42
9325;BME280;4701;51.566;6.776;2023-04-24T08:53:07;99943.34;;;9.23;92.34
9325;BME280;4701;51.566;6.776;2023-04-24T08:56:09;99953.97;;;9.24;92.39
9325;BME280;4701;51.566;6.776;2023-04-24T08:59:11;99960.47;;;9.28;92.68
9325;BME280;4701;51.566;6.776;2023-04-24T09:02:13;99964.25;;;9.32;93.32
9325;BME280;4701;51.566;6.776;2023-04-24T09:05:17;99974.06;;;9.33;93.22
9325;BME280;4701;51.566;6.776;2023-04-24T09:08:23;99981.13;;;9.34;93.39
9325;BME280;4701;51.566;6.776;2023-04-24T09:11:26;99978.91;;;9.36;93.29
9325;BME280;4701;51.566;6.776;2023-04-24T09:14:28;99986.81;;;9.38;93.51
9325;BME280;4701;51.566;6.776;2023-04-24T09:17:33;100013.97;;;9.48;93.84
9325;BME280;4701;51.566;6.776;2023-04-24T09:20:56;100028.13;;;9.45;93.71
9325;BME280;4701;51.566;6.776;2023-04-24T09:23:59;100049.63;;;9.41;93.75
9325;BME280;4701;51.566;6.776;2023-04-24T09:27:02;100051.81;;;9.39;93.50
9325;BME280;4701;51.566;6.776;2023-04-24T09:30:06;100068.66;;;9.36;93.47
9325;BME280;4701;51.566;6.776;2023-04-24T09:33:12;100060.00;;;9.34;93.47
9325;BME280;4701;51.566;6.776;2023-04-24T09:36:17;100095.63;;;9.33;93.25
9325;BME280;4701;51.566;6.776;2023-04-24T09:39:19;100105.66;;;9.27;92.74
9325;BME280;4701;51.566;6.776;2023-04-24T09:42:21;100113.03;;;9.27;93.07
9325;BME280;4701;51.566;6.776;2023-04-24T09:45:28;100113.03;;;9.22;92.54
9325;BME280;4701;51.566;6.776;2023-04-24T09:48:31;100132.88;;;9.17;92.51
9325;BME280;4701;51.566;6.776;2023-04-24T09:51:36;100135.88;;;9.16;92.29
9325;BME280;4701;51.566;6.776;2023-04-24T09:54:39;100149.75;;;9.09;92.44
9325;BME280;4701;51.566;6.776;2023-04-24T09:57:47;100157.63;;;9.05;92.55
9325;BME280;4701;51.566;6.776;2023-04-24T10:00:49;100168.19;;;9.02;92.31
9325;BME280;4701;51.566;6.776;2023-04-24T10:03:51;100168.75;;;8.99;92.53
9325;BME280;4701;51.566;6.776;2023-04-24T10:06:56;100167.94;;;8.98;92.53
9325;BME280;4701;51.566;6.776;2023-04-24T10:09:59;100182.06;;;8.95;92.97
9325;BME280;4701;51.566;6.776;2023-04-24T10:13:01;100186.94;;;8.93;93.07
9325;BME280;4701;51.566;6.776;2023-04-24T10:16:03;100200.00;;;8.91;93.23
9325;BME280;4701;51.566;6.776;2023-04-24T10:19:06;100202.47;;;8.93;93.85
9325;BME280;4701;51.566;6.776;2023-04-24T10:22:10;100192.13;;;8.90;94.15
9325;BME280;4701;51.566;6.776;2023-04-24T10:25:12;100205.44;;;8.91;94.30
9325;BME280;4701;51.566;6.776;2023-04-24T10:28:15;100206.78;;;8.89;94.81
9325;BME280;4701;51.566;6.776;2023-04-24T10:31:17;100216.28;;;8.86;95.49
9325;BME280;4701;51.566;6.776;2023-04-24T10:34:20;100225.25;;;8.87;95.23
9325;BME280;4701;51.566;6.776;2023-04-24T10:37:25;100227.16;;;8.86;95.50
9325;BME280;4701;51.566;6.776;2023-04-24T10:40:30;100236.13;;;8.87;95.93
9325;BME280;4701;51.566;6.776;2023-04-24T10:43:33;100231.78;;;8.86;96.19
9325;BME280;4701;51.566;6.776;2023-04-24T10:46:35;100239.41;;;8.84;96.53
9325;BME280;4701;51.566;6.776;2023-04-24T10:49:37;100244.28;;;8.87;96.06
9325;BME280;4701;51.566;6.776;2023-04-24T10:52:45;100245.09;;;8.82;96.33
9325;BME280;4701;51.566;6.776;2023-04-24T10:55:48;100245.91;;;8.83;97.03
9325;BME280;4701;51.566;6.776;2023-04-24T10:58:52;100255.16;;;8.82;96.61
9325;BME280;4701;51.566;6.776;2023-04-24T11:01:55;100261.41;;;8.82;97.12
9325;BME280;4701;51.566;6.776;2023-04-24T11:04:56;100263.03;;;8.83;97.17
9325;BME280;4701;51.566;6.776;2023-04-24T11:08:13;100274.16;;;8.87;97.26
9325;BME280;4701;51.566;6.776;2023-04-24T11:11:17;100284.53;;;8.90;97.48
9325;BME280;4701;51.566;6.776;2023-04-24T11:14:21;100281.00;;;8.94;97.25
9325;BME280;4701;51.566;6.776;2023-04-24T11:17:29;100271.22;;;8.98;97.67
9325;BME280;4701;51.566;6.776;2023-04-24T11:20:32;100279.38;;;9.03;97.74
9325;BME280;4701;51.566;6.776;2023-04-24T11:23:37;100285.94;;;9.07;97.40
9325;BME280;4701;51.566;6.776;2023-04-24T11:26:39;100294.66;;;9.15;96.17
9325;BME280;4701;51.566;6.776;2023-04-24T11:29:45;100295.22;;;9.17;96.64
9325;BME280;4701;51.566;6.776;2023-04-24T11:32:48;100305.53;;;9.20;94.31
9325;BME280;4701;51.566;6.776;2023-04-24T11:35:51;100308.53;;;9.18;92.70
9325;BME280;4701;51.566;6.776;2023-04-24T11:38:55;100325.94;;;9.17;92.65
9325;BME280;4701;51.566;6.776;2023-04-24T11:42:02;100329.75;;;9.16;92.53
9325;BME280;4701;51.566;6.776;2023-04-24T11:45:08;100318.88;;;9.16;92.70
9325;BME280;4701;51.566;6.776;2023-04-24T11:48:10;100337.91;;;9.16;92.44
9325;BME280;4701;51.566;6.776;2023-04-24T11:51:12;100343.34;;;9.16;90.81
9325;BME280;4701;51.566;6.776;2023-04-24T11:54:15;100342.50;;;9.16;91.07
9325;BME280;4701;51.566;6.776;2023-04-24T11:57:19;100340.88;;;9.15;90.80
9325;BME280;4701;51.566;6.776;2023-04-24T12:00:22;100356.09;;;9.16;90.97
9325;BME280;4701;51.566;6.776;2023-04-24T12:03:24;100364.00;;;9.17;91.35
9325;BME280;4701;51.566;6.776;2023-04-24T12:06:26;100368.06;;;9.20;89.68
9325;BME280;4701;51.566;6.776;2023-04-24T12:09:40;100363.72;;;9.19;90.05
9325;BME280;4701;51.566;6.776;2023-04-24T12:12:42;100369.16;;;9.19;89.39
9325;BME280;4701;51.566;6.776;2023-04-24T12:15:46;100384.38;;;9.20;88.96
9325;BME280;4701;51.566;6.776;2023-04-24T12:18:51;100389.00;;;9.19;88.22
9325;BME280;4701;51.566;6.776;2023-04-24T12:22:00;100389.56;;;9.16;87.91
9325;BME280;4701;51.566;6.776;2023-04-24T12:25:04;100386.84;;;9.16;86.74
9325;BME280;4701;51.566;6.776;2023-04-24T12:28:11;100400.69;;;9.15;87.36
9325;BME280;4701;51.566;6.776;2023-04-24T12:31:13;100389.00;;;9.14;86.49
9325;BME280;4701;51.566;6.776;2023-04-24T12:34:19;100413.22;;;9.16;87.08
9325;BME280;4701;51.566;6.776;2023-04-24T12:37:23;100401.25;;;9.17;86.43
9325;BME280;4701;51.566;6.776;2023-04-24T12:40:26;100416.75;;;9.16;86.10
9325;BME280;4701;51.566;6.776;2023-04-24T12:43:29;100406.13;;;9.20;83.86
9325;BME280;4701;51.566;6.776;2023-04-24T12:46:31;100405.31;;;9.19;83.65
9325;BME280;4701;51.566;6.776;2023-04-24T12:49:33;100408.03;;;9.19;83.35
9325;BME280;4701;51.566;6.776;2023-04-24T12:52:34;100402.91;;;9.23;82.46
9325;BME280;4701;51.566;6.776;2023-04-24T12:55:38;100416.25;;;9.24;81.52
9325;BME280;4701;51.566;6.776;2023-04-24T12:58:40;100421.69;;;9.24;81.81
9325;BME280;4701;51.566;6.776;2023-04-24T13:01:42;100432.28;;;9.26;81.10
9325;BME280;4701;51.566;6.776;2023-04-24T13:04:44;100432.56;;;9.24;80.91
9325;BME280;4701;51.566;6.776;2023-04-24T13:07:47;100428.75;;;9.25;81.30
9325;BME280;4701;51.566;6.776;2023-04-24T13:10:50;100439.09;;;9.28;80.71
9325;BME280;4701;51.566;6.776;2023-04-24T13:13:54;100440.72;;;9.29;80.32
9325;BME280;4701;51.566;6.776;2023-04-24T13:16:56;100443.19;;;9.31;80.35
9325;BME280;4701;51.566;6.776;2023-04-24T13:19:58;100445.91;;;9.31;80.60
9325;BME280;4701;51.566;6.776;2023-04-24T13:22:59;100453.53;;;9.34;79.69
9325;BME280;4701;51.566;6.776;2023-04-24T13:26:03;100442.41;;;9.35;79.56
9325;BME280;4701;51.566;6.776;2023-04-24T13:29:04;100447.28;;;9.33;80.07
9325;BME280;4701;51.566;6.776;2023-04-24T13:32:07;100462.53;;;9.34;80.90
9325;BME280;4701;51.566;6.776;2023-04-24T13:35:09;100437.75;;;9.36;81.16
9325;BME280;4701;51.566;6.776;2023-04-24T13:38:11;100459.00;;;9.39;80.06
9325;BME280;4701;51.566;6.776;2023-04-24T13:41:14;100452.78;;;9.43;79.78
9325;BME280;4701;51.566;6.776;2023-04-24T13:44:16;100454.38;;;9.44;79.65
9325;BME280;4701;51.566;6.776;2023-04-24T13:47:18;100451.69;;;9.49;79.82
9325;BME280;4701;51.566;6.776;2023-04-24T13:50:20;100447.34;;;9.54;79.40
9325;BME280;4701;51.566;6.776;2023-04-24T13:53:22;100437.84;;;9.61;78.71
9325;BME280;4701;51.566;6.776;2023-04-24T13:56:25;100429.97;;;9.65;79.13
9325;BME280;4701;51.566;6.776;2023-04-24T13:59:27;100440.06;;;9.69;78.61
9325;BME280;4701;51.566;6.776;2023-04-24T14:02:29;100443.06;;;9.73;78.26
9325;BME280;4701;51.566;6.776;2023-04-24T14:05:31;100443.09;;;9.78;78.77
9325;BME280;4701;51.566;6.776;2023-04-24T14:08:33;100458.31;;;9.79;78.89
9325;BME280;4701;51.566;6.776;2023-04-24T14:11:36;100447.97;;;9.81;79.25
9325;BME280;4701;51.566;6.776;2023-04-24T14:14:38;100455.88;;;9.82;80.30
9325;BME280;4701;51.566;6.776;2023-04-24T14:17:40;100471.94;;;9.84;80.43
9325;BME280;4701;51.566;6.776;2023-04-24T14:20:42;100473.31;;;9.86;79.48
9325;BME280;4701;51.566;6.776;2023-04-24T14:23:43;100473.84;;;9.83;79.61
9325;BME280;4701;51.566;6.776;2023-04-24T14:26:47;100474.38;;;9.80;80.52
9325;BME280;4701;51.566;6.776;2023-04-24T14:29:49;100470.56;;;9.76;81.76
9325;BME280;4701;51.566;6.776;2023-04-24T14:32:51;100494.78;;;9.73;81.82
9325;BME280;4701;51.566;6.776;2023-04-24T14:35:53;100478.97;;;9.70;82.29
9325;BME280;4701;51.566;6.776;2023-04-24T14:38:55;100473.00;;;9.68;82.46
9325;BME280;4701;51.566;6.776;2023-04-24T14:41:59;100484.66;;;9.63;82.33
9325;BME280;4701;51.566;6.776;2023-04-24T14:45:01;100483.56;;;9.59;82.99
9325;BME280;4701;51.566;6.776;2023-04-24T14:48:03;100478.66;;;9.56;81.86
9325;BME280;4701;51.566;6.776;2023-04-24T14:51:05;100472.66;;;9.54;82.06
9325;BME280;4701;51.566;6.776;2023-04-24T14:54:07;100480.81;;;9.54;81.76
9325;BME280;4701;51.566;6.776;2023-04-24T14:57:10;100494.16;;;9.56;80.99
9325;BME280;4701;51.566;6.776;2023-04-24T15:00:13;100486.81;;;9.56;80.66
9325;BME280;4701;51.566;6.776;2023-04-24T15:03:18;100499.91;;;9.59;80.29
9325;BME280;4701;51.566;6.776;2023-04-24T15:06:20;100501.81;;;9.64;78.98
9325;BME280;4701;51.566;6.776;2023-04-24T15:09:23;100480.59;;;9.66;78.47
9325;BME280;4701;51.566;6.776;2023-04-24T15:12:30;100480.34;;;9.67;77.96
9325;BME280;4701;51.566;6.776;2023-04-24T15:15:33;100486.34;;;9.69;78.27
9325;BME280;4701;51.566;6.776;2023-04-24T15:18:34;100496.41;;;9.74;78.18
9325;BME280;4701;51.566;6.776;2023-04-24T15:21:37;100493.16;;;9.77;77.80
9325;BME280;4701;51.566;6.776;2023-04-24T15:24:41;100502.97;;;9.78;78.33
9325;BME280;4701;51.566;6.776;2023-04-24T15:27:47;100497.78;;;9.81;78.21
9325;BME280;4701;51.566;6.776;2023-04-24T15:30:49;100503.53;;;9.85;77.79
9325;BME280;4701;51.566;6.776;2023-04-24T15:33:51;100509.50;;;9.87;77.76
9325;BME280;4701;51.566;6.776;2023-04-24T15:36:53;100503.81;;;9.88;77.60
9325;BME280;4701;51.566;6.776;2023-04-24T15:39:55;100506.25;;;9.90;77.38
9325;BME280;4701;51.566;6.776;2023-04-24T15:42:58;100518.53;;;9.93;78.06
9325;BME280;4701;51.566;6.776;2023-04-24T15:46:01;100523.72;;;9.94;77.92
9325;BME280;4701;51.566;6.776;2023-04-24T15:49:02;100514.47;;;9.95;78.36
9325;BME280;4701;51.566;6.776;2023-04-24T15:52:04;100506.81;;;9.97;78.37
9325;BME280;4701;51.566;6.776;2023-04-24T15:55:06;100512.81;;;9.99;77.78
9325;BME280;4701;51.566;6.776;2023-04-24T15:58:10;100514.19;;;10.02;77.55
9325;BME280;4701;51.566;6.776;2023-04-24T16:01:11;100507.13;;;10.06;78.51
9325;BME280;4701;51.566;6.776;2023-04-24T16:04:13;100506.06;;;10.12;78.54
9325;BME280;4701;51.566;6.776;2023-04-24T16:07:16;100516.47;;;10.20;78.93
9325;BME280;4701;51.566;6.776;2023-04-24T16:10:18;100508.56;;;10.29;78.26
9325;BME280;4701;51.566;6.776;2023-04-24T16:13:21;100517.56;;;10.34;78.28
9325;BME280;4701;51.566;6.776;2023-04-24T16:16:23;100517.84;;;10.38;78.32
9325;BME280;4701;51.566;6.776;2023-04-24T16:19:25;100514.00;;;10.39;78.14
9325;BME280;4701;51.566;6.776;2023-04-24T16:22:27;100521.66;;;10.42;76.79
9325;BME280;4701;51.566;6.776;2023-04-24T16:25:29;100531.72;;;10.41;76.99
9325;BME280;4701;51.566;6.776;2023-04-24T16:28:32;100530.09;;;10.40;77.11
9325;BME280;4701;51.566;6.776;2023-04-24T16:31:34;100528.19;;;10.41;77.20
9325;BME280;4701;51.566;6.776;2023-04-24T16:34:36;100545.63;;;10.40;76.56
9325;BME280;4701;51.566;6.776;2023-04-24T16:37:37;100552.44;;;10.37;76.49
9325;BME280;4701;51.566;6.776;2023-04-24T16:40:39;100563.88;;;10.34;76.31
9325;BME280;4701;51.566;6.776;2023-04-24T16:43:43;100556.78;;;10.28;77.56
9325;BME280;4701;51.566;6.776;2023-04-24T16:46:45;100557.03;;;10.21;77.39
9325;BME280;4701;51.566;6.776;2023-04-24T16:49:48;100552.63;;;10.15;77.52
9325;BME280;4701;51.566;6.776;2023-04-24T16:52:50;100561.06;;;10.09;77.94
9325;BME280;4701;51.566;6.776;2023-04-24T16:55:51;100556.94;;;10.01;77.81
9325;BME280;4701;51.566;6.776;2023-04-24T16:58:55;100552.56;;;9.95;77.42
9325;BME280;4701;51.566;6.776;2023-04-24T17:01:57;100544.63;;;9.88;77.20
9325;BME280;4701;51.566;6.776;2023-04-24T17:04:58;100549.25;;;9.83;77.28
9325;BME280;4701;51.566;6.776;2023-04-24T17:08:00;100541.88;;;9.78;76.87
9325;BME280;4701;51.566;6.776;2023-04-24T17:11:02;100552.75;;;9.73;76.68
9325;BME280;4701;51.566;6.776;2023-04-24T17:14:05;100547.28;;;9.68;76.58
9325;BME280;4701;51.566;6.776;2023-04-24T17:17:07;100556.78;;;9.66;76.73
9325;BME280;4701;51.566;6.776;2023-04-24T17:20:10;100564.66;;;9.62;77.04
9325;BME280;4701;51.566;6.776;2023-04-24T17:23:12;100547.50;;;9.62;76.30
9325;BME280;4701;51.566;6.776;2023-04-24T17:26:14;100553.78;;;9.62;76.75
9325;BME280;4701;51.566;6.776;2023-04-24T17:29:18;100562.75;;;9.63;76.50
9325;BME280;4701;51.566;6.776;2023-04-24T17:32:19;100556.78;;;9.66;76.57
9325;BME280;4701;51.566;6.776;2023-04-24T17:35:21;100555.72;;;9.67;76.20
9325;BME280;4701;51.566;6.776;2023-04-24T17:38:23;100550.28;;;9.67;76.48
9325;BME280;4701;51.566;6.776;2023-04-24T17:41:25;100563.63;;;9.68;76.75
9325;BME280;4701;51.566;6.776;2023-04-24T17:44:28;100553.56;;;9.69;76.51
9325;BME280;4701;51.566;6.776;2023-04-24T17:47:30;100560.91;;;9.68;75.35
9325;BME280;4701;51.566;6.776;2023-04-24T17:50:32;100557.34;;;9.68;76.06
9325;BME280;4701;51.566;6.776;2023-04-24T17:53:34;100554.06;;;9.66;75.96
9325;BME280;4701;51.566;6.776;2023-04-24T17:56:36;100554.34;;;9.64;76.50
9325;BME280;4701;51.566;6.776;2023-04-24T17:59:39;100565.22;;;9.64;76.54
9325;BME280;4701;51.566;6.776;2023-04-24T18:02:40;100566.56;;;9.62;76.49
9325;BME280;4701;51.566;6.776;2023-04-24T18:05:42;100573.13;;;9.61;76.58
9325;BME280;4701;51.566;6.776;2023-04-24T18:08:44;100577.16;;;9.58;76.60
9325;BME280;4701;51.566;6.776;2023-04-24T18:11:46;100564.66;;;9.57;76.41
9325;BME280;4701;51.566;6.776;2023-04-24T18:14:50;100574.16;;;9.55;76.61
9325;BME280;4701;51.566;6.776;2023-04-24T18:17:52;100571.97;;;9.52;76.28
9325;BME280;4701;51.566;6.776;2023-04-24T18:20:54;100584.75;;;9.51;76.64
9325;BME280;4701;51.566;6.776;2023-04-24T18:23:55;100580.91;;;9.47;76.87
9325;BME280;4701;51.566;6.776;2023-04-24T18:26:59;100581.16;;;9.45;76.59
9325;BME280;4701;51.566;6.776;2023-04-24T18:30:03;100584.97;;;9.44;77.23
9325;BME280;4701;51.566;6.776;2023-04-24T18:33:06;100590.13;;;9.41;77.61
9325;BME280;4701;51.566;6.776;2023-04-24T18:36:07;100596.91;;;9.38;76.90
9325;BME280;4701;51.566;6.776;2023-04-24T18:39:09;100596.34;;;9.36;77.68
9325;BME280;4701;51.566;6.776;2023-04-24T18:42:11;100600.16;;;9.35;77.29
9325;BME280;4701;51.566;6.776;2023-04-24T18:45:14;100604.22;;;9.33;78.15
9325;BME280;4701;51.566;6.776;2023-04-24T18:48:16;100597.41;;;9.30;77.54
9325;BME280;4701;51.566;6.776;2023-04-24T18:51:18;100603.09;;;9.29;78.07
9325;BME280;4701;51.566;6.776;2023-04-24T18:54:20;100603.34;;;9.27;78.53
9325;BME280;4701;51.566;6.776;2023-04-24T18:57:22;100610.97;;;9.25;78.28
9325;BME280;4701;51.566;6.776;2023-04-24T19:00:25;100613.94;;;9.24;78.39
9325;BME280;4701;51.566;6.776;2023-04-24T19:03:27;100628.06;;;9.21;78.47
9325;BME280;4701;51.566;6.776;2023-04-24T19:06:29;100628.31;;;9.19;78.58
9325;BME280;4701;51.566;6.776;2023-04-24T19:09:31;100622.31;;;9.17;78.44
9325;BME280;4701;51.566;6.776;2023-04-24T19:12:33;100630.75;;;9.16;78.16
9325;BME280;4701;51.566;6.776;2023-04-24T19:15:39;100648.13;;;9.15;78.50
9325;BME280;4701;51.566;6.776;2023-04-24T19:18:40;100638.84;;;9.10;77.59
9325;BME280;4701;51.566;6.776;2023-04-24T19:21:43;100644.81;;;9.07;77.22
9325;BME280;4701;51.566;6.776;2023-04-24T19:24:46;100648.84;;;9.05;76.46
9325;BME280;4701;51.566;6.776;2023-04-24T19:27:48;100646.66;;;9.02;76.50
9325;BME280;4701;51.566;6.776;2023-04-24T19:30:52;100643.91;;;8.97;76.27
9325;BME280;4701;51.566;6.776;2023-04-24T19:34:01;100650.66;;;8.94;76.60
9325;BME280;4701;51.566;6.776;2023-04-24T19:37:51;100654.75;;;8.92;75.96
9325;BME280;4701;51.566;6.776;2023-04-24T19:40:53;100660.09;;;8.87;76.35
9325;BME280;4701;51.566;6.776;2023-04-24T19:43:55;100655.22;;;8.84;76.05
9325;BME280;4701;51.566;6.776;2023-04-24T19:47:13;100653.00;;;8.81;76.25
9325;BME280;4701;51.566;6.776;2023-04-24T19:50:15;100661.41;;;8.79;76.40
9325;BME280;4701;51.566;6.776;2023-04-24T19:53:17;100654.56;;;8.77;76.60
9325;BME280;4701;51.566;6.776;2023-04-24T19:56:19;100655.91;;;8.74;77.29
9325;BME280;4701;51.566;6.776;2023-04-24T19:59:21;100658.88;;;8.72;77.12
9325;BME280;4701;51.566;6.776;2023-04-24T20:02:24;100662.34;;;8.68;77.34
9325;BME280;4701;51.566;6.776;2023-04-24T20:05:29;100661.81;;;8.66;76.93
9325;BME280;4701;51.566;6.776;2023-04-24T20:08:31;100661.00;;;8.65;77.51
9325;BME280;4701;51.566;6.776;2023-04-24T20:11:33;100667.75;;;8.63;76.85
9325;BME280;4701;51.566;6.776;2023-04-24T20:14:34;100668.25;;;8.60;76.82
9325;BME280;4701;51.566;6.776;2023-04-24T20:17:38;100668.53;;;8.58;77.02
9325;BME280;4701;51.566;6.776;2023-04-24T20:20:40;100669.84;;;8.56;76.70
9325;BME280;4701;51.566;6.776;2023-04-24T20:23:42;100668.47;;;8.53;76.86
9325;BME280;4701;51.566;6.776;2023-04-24T20:26:44;100660.00;;;8.50;76.98
9325;BME280;4701;51.566;6.776;2023-04-24T20:29:46;100666.53;;;8.49;77.19
9325;BME280;4701;51.566;6.776;2023-04-24T20:32:49;100665.13;;;8.46;77.11
9325;BME280;4701;51.566;6.776;2023-04-24T20:35:51;100662.06;;;8.43;77.00
9325;BME280;4701;51.566;6.776;2023-04-24T20:38:52;100654.47;;;8.40;77.55
9325;BME280;4701;51.566;6.776;2023-04-24T20:41:56;100652.00;;;8.38;77.84
9325;BME280;4701;51.566;6.776;2023-04-24T20:44:59;100656.03;;;8.35;77.49
9325;BME280;4701;51.566;6.776;2023-04-24T20:48:03;100657.38;;;8.33;78.07
9325;BME280;4701;51.566;6.776;2023-04-24T20:51:05;100666.00;;;8.30;77.47
9325;BME280;4701;51.566;6.776;2023-04-24T20:54:08;100658.09;;;8.28;77.96
9325;BME280;4701;51.566;6.776;2023-04-24T20:57:09;100654.25;;;8.24;77.51
9325;BME280;4701;51.566;6.776;2023-04-24T21:00:12;100661.81;;;8.22;77.64
